地図

経路データ

SID SEASON NUMBER BASIN SUBBASIN NAME ISO_TIME NATURE LAT LON WMO_WIND WMO_PRES WMO_AGENCY TRACK_TYPE DIST2LAND LANDFALL IFLAG USA_AGENCY USA_ATCF_ID USA_LAT USA_LON USA_RECORD USA_STATUS USA_WIND USA_PRES USA_SSHS USA_R34_NE USA_R34_SE USA_R34_SW USA_R34_NW USA_R50_NE USA_R50_SE USA_R50_SW USA_R50_NW USA_R64_NE USA_R64_SE USA_R64_SW USA_R64_NW USA_POCI USA_ROCI USA_RMW USA_EYE TOKYO_LAT TOKYO_LON TOKYO_GRADE TOKYO_WIND TOKYO_PRES TOKYO_R50_DIR TOKYO_R50_LONG TOKYO_R50_SHORT TOKYO_R30_DIR TOKYO_R30_LONG TOKYO_R30_SHORT TOKYO_LAND CMA_LAT CMA_LON CMA_CAT CMA_WIND CMA_PRES HKO_LAT HKO_LON HKO_CAT HKO_WIND HKO_PRES NEWDELHI_LAT NEWDELHI_LON NEWDELHI_GRADE NEWDELHI_WIND NEWDELHI_PRES NEWDELHI_CI NEWDELHI_DP NEWDELHI_POCI REUNION_LAT REUNION_LON REUNION_TYPE REUNION_WIND REUNION_PRES REUNION_TNUM REUNION_CI REUNION_RMW REUNION_R34_NE REUNION_R34_SE REUNION_R34_SW REUNION_R34_NW REUNION_R50_NE REUNION_R50_SE REUNION_R50_SW REUNION_R50_NW REUNION_R64_NE REUNION_R64_SE REUNION_R64_SW REUNION_R64_NW BOM_LAT BOM_LON BOM_TYPE BOM_WIND BOM_PRES BOM_TNUM BOM_CI BOM_RMW BOM_R34_NE BOM_R34_SE BOM_R34_SW BOM_R34_NW BOM_R50_NE BOM_R50_SE BOM_R50_SW BOM_R50_NW BOM_R64_NE BOM_R64_SE BOM_R64_SW BOM_R64_NW BOM_ROCI BOM_POCI BOM_EYE BOM_POS_METHOD BOM_PRES_METHOD NADI_LAT NADI_LON NADI_CAT NADI_WIND NADI_PRES WELLINGTON_LAT WELLINGTON_LON WELLINGTON_WIND WELLINGTON_PRES DS824_LAT DS824_LON DS824_STAGE DS824_WIND DS824_PRES TD9636_LAT TD9636_LON TD9636_STAGE TD9636_WIND TD9636_PRES TD9635_LAT TD9635_LON TD9635_WIND TD9635_PRES TD9635_ROCI NEUMANN_LAT NEUMANN_LON NEUMANN_CLASS NEUMANN_WIND NEUMANN_PRES MLC_LAT MLC_LON MLC_CLASS MLC_WIND MLC_PRES USA_GUST BOM_GUST BOM_GUST_PER REUNION_GUST REUNION_GUST_PER USA_SEAHGT USA_SEARAD_NE USA_SEARAD_SE USA_SEARAD_SW USA_SEARAD_NW STORM_SPEED STORM_DIR
1905296N17086 1905 51 NI BB NOT_NAMED 1905-10-23 00:00:00 TS 17.1000 86.0000 main 238 230 _________O____ -1 17.1000 86.0000 TC 34 2 33
1905296N17086 1905 51 NI BB NOT_NAMED 1905-10-23 03:00:00 TS 17.2000 86.0750 main 238 230 _________PO___ -1 17.2500 86.1124 TC 36 17.1000 86.0000 2 3 32
1905296N17086 1905 51 NI BB NOT_NAMED 1905-10-23 06:00:00 TS 17.3400 86.1549 main 238 223 _________OP___ -1 17.4000 86.2000 TC 39 17.2501 86.0872 2 3 25
1905296N17086 1905 51 NI BB NOT_NAMED 1905-10-23 09:00:00 TS 17.4858 86.2156 main 223 215 _________PP___ -1 17.5500 86.2500 TC 42 17.4001 86.1696 2 3 22
1905296N17086 1905 51 NI BB NOT_NAMED 1905-10-23 12:00:00 TS 17.6251 86.2711 main 224 211 _________OP___ -1 17.7000 86.3000 TC 45 17.5501 86.2422 2 3 24
1905296N17086 1905 51 NI BB NOT_NAMED 1905-10-23 15:00:00 TS 17.7713 86.3500 main 211 211 _________PO___ -1 17.8425 86.4000 TC 45 17.7000 86.3000 3 3 26
1905296N17086 1905 51 NI BB NOT_NAMED 1905-10-23 18:00:00 TS 17.9257 86.4214 main 215 198 _________OP___ -1 18.0000 86.5000 TC 45 17.8514 86.3429 3 3 18
1905296N17086 1905 51 NI BB NOT_NAMED 1905-10-23 21:00:00 TS 18.0948 86.4592 main 203 183 _________PP___ -1 18.1774 86.5277 TC 45 18.0122 86.3907 3 4 16
1905296N17086 1905 51 NI BB NOT_NAMED 1905-10-24 00:00:00 TS 18.2960 86.5340 main 183 165 _________OP___ -1 18.4000 86.6000 TC 45 18.1919 86.4680 3 5 27
1905296N17086 1905 51 NI BB NOT_NAMED 1905-10-24 03:00:00 TS 18.5463 86.7062 main 168 144 _________PO___ -1 18.6925 86.8124 TC 45 18.4000 86.6000 3 7 37
1905296N17086 1905 51 NI BB NOT_NAMED 1905-10-24 06:00:00 TS 18.8210 86.9466 main 144 131 _________OP___ -1 19.0000 87.1000 TC 45 18.6421 86.7932 3 7 42
1905296N17086 1905 51 NI BB NOT_NAMED 1905-10-24 09:00:00 TS 19.0811 87.2115 main 131 129 _________PP___ -1 19.2499 87.3777 TC 45 18.9123 87.0453 3 8 46
1905296N17086 1905 51 NI BB NOT_NAMED 1905-10-24 12:00:00 TS 19.3507 87.5248 main 130 130 _________OP___ -1 19.5000 87.7000 TC 45 19.2013 87.3497 3 9 49
1905296N17086 1905 51 NI BB NOT_NAMED 1905-10-24 15:00:00 TS 19.6462 87.8888 main 147 142 _________PO___ -1 19.7925 88.0776 TC 45 19.5000 87.7000 3 9 50
1905296N17086 1905 51 NI BB NOT_NAMED 1905-10-24 18:00:00 TS 19.9506 88.2949 main 156 156 _________OP___ -1 20.1000 88.5000 TC 45 19.8012 88.0898 3 10 53
1905296N17086 1905 51 NI BB NOT_NAMED 1905-10-24 21:00:00 TS 20.2577 88.7386 main 146 123 _________PP___ -1 20.4075 88.9575 TC 45 20.1079 88.5197 3 10 54
1905296N17086 1905 51 NI BB NOT_NAMED 1905-10-25 00:00:00 TS 20.5553 89.1824 main 112 98 _________OP___ -1 20.7000 89.4000 TC 45 20.4105 88.9648 3 10 54
1905296N17086 1905 51 NI BB NOT_NAMED 1905-10-25 03:00:00 TS 20.8286 89.5789 main 102 78 _________PO___ -1 20.9573 89.7578 TC 45 20.7000 89.4000 3 9 53
1905296N17086 1905 51 NI BB NOT_NAMED 1905-10-25 06:00:00 TS 21.0819 89.9390 main 78 55 _________OP___ -1 21.2000 90.1000 TC 45 20.9638 89.7780 3 9 54
1905296N17086 1905 51 NI BB NOT_NAMED 1905-10-25 09:00:00 TS 21.3320 90.3144 main 56 45 _________PP___ -1 21.4499 90.4851 TC 45 21.2141 90.1436 3 9 55
1905296N17086 1905 51 NI BB NOT_NAMED 1905-10-25 12:00:00 TS 21.5787 90.7062 main 45 39 _________OP___ -1 21.7000 90.9000 TC 45 21.4575 90.5124 3 9 57
1905296N17086 1905 51 NI BB NOT_NAMED 1905-10-25 15:00:00 TS 21.8250 91.1213 main 53 38 _________PO___ -1 21.9499 91.3426 TC 41 21.7000 90.9000 3 9 58
1905296N17086 1905 51 NI BB NOT_NAMED 1905-10-25 18:00:00 TS 22.0551 91.5248 main 32 0 _________OP___ -1 22.2000 91.8000 TC 37 21.9465 91.3183 3 9 59
1905296N17086 1905 51 NI BB NOT_NAMED 1905-10-25 21:00:00 TS 22.2979 91.9588 main 0 0 _________PP___ -1 22.4502 92.2522 TC 33 22.1964 91.7633 3 9 59
1905296N17086 1905 51 NI BB NOT_NAMED 1905-10-26 00:00:00 TS 22.5321 92.3844 main 0 0 _________OP___ -1 22.7000 92.7000 TC 30 22.4482 92.2266 3 8 60
1905296N17086 1905 51 NI BB NOT_NAMED 1905-10-26 03:00:00 NR 22.7000 92.7000 main 0 __________O___ -1 TC 22.7000 92.7000 1 7 60

IBTrACS Databaseについて

本データベースは、米国NOAAが公開する1842年以降の世界の熱帯低気圧のベストトラックデータアーカイブInternational Best Track Archive for Climate Stewardship (IBTrACS)を、ウェブで閲覧しやすい形式に変換したものです。

最終更新日:2021-12-03